createdAt,value
2019-05-25T00:00:15.065Z,20.7
2019-05-25T00:03:15.245Z,20.6
2019-05-25T00:06:15.729Z,20.6
2019-05-25T00:09:15.040Z,20.6
2019-05-25T00:12:15.271Z,20.6
2019-05-25T00:15:15.800Z,20.6
2019-05-25T00:18:15.181Z,20.6
2019-05-25T00:21:15.682Z,20.5
2019-05-25T00:24:15.164Z,20.5
2019-05-25T00:27:14.864Z,20.5
2019-05-25T00:30:15.222Z,20.4
2019-05-25T00:33:15.434Z,20.4
2019-05-25T00:36:15.170Z,20.4
2019-05-25T00:39:15.482Z,20.3
2019-05-25T00:42:15.550Z,20.3
2019-05-25T00:45:15.769Z,20.3
2019-05-25T00:48:15.209Z,20.2
2019-05-25T00:51:15.372Z,20.2
2019-05-25T00:54:27.416Z,20.1
2019-05-25T00:57:16.443Z,20.0
2019-05-25T01:00:15.484Z,20.0
2019-05-25T01:03:15.545Z,20.0
2019-05-25T01:06:15.692Z,20.0
2019-05-25T01:09:14.849Z,20.0
2019-05-25T01:12:14.863Z,20.0
2019-05-25T01:15:15.229Z,20.0
2019-05-25T01:18:15.496Z,19.9
2019-05-25T01:21:14.923Z,19.9
2019-05-25T01:24:15.279Z,19.9
2019-05-25T01:27:15.743Z,19.9
2019-05-25T01:30:15.136Z,19.9
2019-05-25T01:33:15.504Z,19.9
2019-05-25T01:36:15.749Z,19.9
2019-05-25T01:39:15.015Z,19.9
2019-05-25T01:42:15.056Z,19.9
2019-05-25T01:45:15.527Z,19.9
2019-05-25T01:48:15.329Z,19.8
2019-05-25T01:51:15.609Z,19.8
2019-05-25T01:54:14.902Z,19.7
2019-05-25T01:57:15.511Z,19.6
2019-05-25T02:00:15.195Z,19.6
2019-05-25T02:03:15.715Z,19.5
2019-05-25T02:06:15.104Z,19.4
2019-05-25T02:09:15.698Z,19.4
2019-05-25T02:12:15.101Z,19.3
2019-05-25T02:15:15.445Z,19.3
2019-05-25T02:18:20.607Z,19.2
2019-05-25T02:21:15.764Z,19.2
2019-05-25T02:24:15.076Z,19.1
2019-05-25T02:27:15.186Z,19.1
2019-05-25T02:30:15.301Z,19.1
2019-05-25T02:33:15.649Z,19.2
2019-05-25T02:36:15.771Z,19.2
2019-05-25T02:39:14.926Z,19.2
2019-05-25T02:42:15.227Z,19.1
2019-05-25T02:45:15.411Z,19.1
2019-05-25T02:48:14.835Z,19.0
2019-05-25T02:51:15.159Z,19.0
2019-05-25T02:54:15.642Z,18.9
2019-05-25T02:57:14.924Z,18.9
2019-05-25T03:00:15.158Z,18.9
2019-05-25T03:06:15.086Z,19.0
2019-05-25T03:09:15.697Z,19.0
2019-05-25T03:12:15.490Z,19.0
2019-05-25T03:15:15.089Z,19.0
2019-05-25T03:18:15.511Z,18.9
2019-05-25T03:21:14.827Z,18.8
2019-05-25T03:24:15.097Z,18.7
2019-05-25T03:27:15.510Z,18.7
2019-05-25T03:30:15.683Z,18.7
2019-05-25T03:33:15.882Z,18.7
2019-05-25T03:36:15.519Z,18.7
2019-05-25T03:39:15.074Z,18.8
2019-05-25T03:42:15.343Z,18.8
2019-05-25T03:45:15.642Z,18.8
2019-05-25T03:48:15.002Z,18.8
2019-05-25T03:51:15.428Z,18.8
2019-05-25T03:54:15.557Z,18.8
2019-05-25T03:57:14.934Z,18.8
2019-05-25T04:00:15.256Z,18.8
2019-05-25T04:03:15.452Z,18.8
2019-05-25T04:06:14.813Z,18.8
2019-05-25T04:09:15.146Z,18.8
2019-05-25T04:12:15.420Z,18.8
2019-05-25T04:15:15.691Z,18.8
2019-05-25T04:18:15.380Z,18.8
2019-05-25T04:21:15.462Z,18.8
2019-05-25T04:24:14.919Z,18.8
2019-05-25T04:27:15.488Z,18.8
2019-05-25T04:30:14.904Z,18.8
2019-05-25T04:33:15.322Z,18.9
2019-05-25T04:36:15.914Z,19.0
2019-05-25T04:39:15.107Z,19.1
2019-05-25T04:42:15.387Z,19.2
2019-05-25T04:45:14.981Z,19.3
2019-05-25T04:48:15.222Z,19.4
2019-05-25T04:51:15.712Z,19.6
2019-05-25T04:54:14.974Z,19.9
2019-05-25T04:57:15.476Z,20.5
2019-05-25T05:00:15.901Z,21.0
2019-05-25T05:03:15.309Z,21.5
2019-05-25T05:06:14.844Z,22.2
2019-05-25T05:09:15.299Z,23.0
2019-05-25T05:12:15.602Z,23.9
2019-05-25T05:15:15.163Z,24.8
2019-05-25T05:18:15.528Z,25.6
2019-05-25T05:21:15.933Z,26.3
2019-05-25T05:24:15.254Z,27.0
2019-05-25T05:27:15.721Z,27.7
2019-05-25T05:30:15.803Z,28.4
2019-05-25T05:33:15.696Z,28.9
2019-05-25T05:36:15.591Z,29.1
2019-05-25T05:39:15.162Z,29.4
2019-05-25T05:42:15.044Z,29.5
2019-05-25T05:45:15.036Z,29.2
2019-05-25T05:48:15.648Z,28.4
2019-05-25T05:51:15.202Z,27.5
2019-05-25T05:54:15.251Z,26.6
2019-05-25T05:57:14.870Z,25.8
2019-05-25T06:00:15.317Z,25.1
2019-05-25T06:03:15.524Z,24.8
2019-05-25T06:06:14.974Z,24.7
2019-05-25T06:09:14.808Z,24.6
2019-05-25T06:12:15.212Z,24.6
2019-05-25T06:15:15.609Z,25.5
2019-05-25T06:18:15.077Z,27.5
2019-05-25T06:24:15.653Z,32.2
2019-05-25T06:39:17.846Z,38.7
2019-05-25T06:42:15.834Z,39.0
2019-05-25T06:45:15.124Z,39.0
2019-05-25T06:48:15.715Z,39.1
2019-05-25T06:51:15.478Z,39.4
2019-05-25T06:54:15.166Z,39.6
2019-05-25T06:57:15.924Z,40.1
2019-05-25T07:00:15.297Z,41.2
2019-05-25T07:03:16.210Z,42.2
2019-05-25T07:06:15.791Z,43.1
2019-05-25T07:09:15.728Z,43.9
2019-05-25T07:12:15.510Z,44.7
2019-05-25T07:15:15.412Z,45.5
2019-05-25T07:18:16.106Z,46.3
2019-05-25T07:21:16.218Z,47.1
2019-05-25T07:24:16.039Z,47.2
2019-05-25T07:27:16.160Z,46.6
2019-05-25T07:30:15.908Z,45.7
2019-05-25T07:33:15.781Z,44.9
2019-05-25T07:36:15.492Z,44.3
2019-05-25T07:39:16.219Z,44.5
2019-05-25T07:42:19.466Z,45.1
2019-05-25T07:45:16.342Z,45.1
2019-05-25T07:48:16.233Z,45.0
2019-05-25T07:51:15.964Z,45.0
2019-05-25T07:54:15.775Z,44.3
2019-05-25T07:57:15.833Z,43.4
2019-05-25T08:00:15.510Z,42.4
2019-05-25T08:03:16.152Z,41.5
2019-05-25T08:06:15.605Z,41.0
2019-05-25T08:09:15.341Z,41.0
2019-05-25T08:12:15.829Z,41.5
2019-05-25T08:15:15.597Z,42.3
2019-05-25T08:18:15.491Z,43.2
2019-05-25T08:21:16.072Z,43.8
2019-05-25T08:24:15.736Z,44.4
2019-05-25T08:27:15.946Z,44.9
2019-05-25T08:30:16.173Z,45.9
2019-05-25T08:33:15.744Z,47.0
2019-05-25T08:36:15.942Z,48.3
2019-05-25T08:39:16.063Z,49.5
2019-05-25T08:42:16.187Z,49.9
2019-05-25T08:45:15.921Z,50.3
2019-05-25T08:48:15.729Z,50.1
2019-05-25T08:51:16.251Z,50.0
2019-05-25T08:54:16.010Z,50.3
2019-05-25T08:57:18.563Z,49.2
2019-05-25T09:00:15.997Z,48.8
2019-05-25T09:03:15.885Z,48.3
2019-05-25T09:06:15.425Z,47.9
2019-05-25T09:09:16.143Z,47.7
2019-05-25T09:12:16.001Z,46.7
2019-05-25T09:15:15.612Z,45.2
2019-05-25T09:18:16.314Z,43.9
2019-05-25T09:21:15.875Z,42.8
2019-05-25T09:24:15.481Z,41.6
2019-05-25T09:27:15.897Z,40.7
2019-05-25T09:33:15.701Z,40.0
2019-05-25T09:36:15.317Z,40.7
2019-05-25T09:39:15.874Z,41.3
2019-05-25T09:42:15.645Z,41.3
2019-05-25T09:45:16.170Z,41.8
2019-05-25T09:48:15.808Z,42.4
2019-05-25T09:51:15.933Z,42.7
2019-05-25T09:54:15.962Z,42.9
2019-05-25T09:57:15.464Z,43.3
2019-05-25T10:00:16.551Z,43.9
2019-05-25T10:03:16.261Z,44.3
2019-05-25T10:06:16.026Z,44.4
2019-05-25T10:09:16.000Z,44.5
2019-05-25T10:12:25.032Z,44.5
2019-05-25T10:15:21.279Z,44.5
2019-05-25T10:18:15.570Z,44.2
2019-05-25T10:21:16.032Z,44.0
2019-05-25T10:24:15.771Z,43.9
2019-05-25T10:27:16.199Z,44.0
2019-05-25T10:30:16.250Z,44.1
2019-05-25T10:33:16.257Z,44.1
2019-05-25T10:36:15.634Z,44.0
2019-05-25T10:39:15.513Z,43.9
2019-05-25T10:42:16.219Z,44.0
2019-05-25T10:45:15.472Z,44.2
2019-05-25T10:48:15.386Z,44.3
2019-05-25T10:51:16.047Z,44.0
2019-05-25T10:54:15.480Z,43.7
2019-05-25T10:57:16.047Z,43.6
2019-05-25T11:00:15.927Z,43.8
2019-05-25T11:03:15.996Z,43.8
2019-05-25T11:06:15.745Z,44.0
2019-05-25T11:09:15.738Z,44.4
2019-05-25T11:12:15.410Z,44.6
2019-05-25T11:15:16.346Z,44.5
2019-05-25T11:18:15.436Z,44.0
2019-05-25T11:21:15.509Z,43.4
2019-05-25T11:24:15.466Z,42.6
2019-05-25T11:27:16.078Z,42.0
2019-05-25T11:30:15.849Z,41.5
2019-05-25T11:33:15.729Z,41.1
2019-05-25T11:36:15.527Z,40.7
2019-05-25T11:39:16.132Z,40.1
2019-05-25T11:42:15.900Z,39.4
2019-05-25T11:45:15.944Z,38.7
2019-05-25T11:48:15.370Z,37.7
2019-05-25T11:51:16.033Z,37.1
2019-05-25T11:54:15.913Z,36.5
2019-05-25T11:57:15.428Z,36.0
2019-05-25T12:00:24.969Z,35.6
2019-05-25T12:03:15.337Z,35.2
2019-05-25T12:06:16.051Z,34.9
2019-05-25T12:09:15.751Z,34.8
2019-05-25T12:12:15.652Z,34.5
2019-05-25T12:15:15.591Z,34.0
2019-05-25T12:18:15.361Z,33.5
2019-05-25T12:21:15.645Z,33.3
2019-05-25T12:24:15.769Z,33.4
2019-05-25T12:27:15.414Z,33.4
2019-05-25T12:30:15.540Z,33.5
2019-05-25T12:33:15.525Z,33.6
2019-05-25T12:36:15.689Z,33.6
2019-05-25T12:39:16.497Z,33.5
2019-05-25T12:42:16.208Z,33.4
2019-05-25T12:45:15.853Z,33.3
2019-05-25T12:48:15.214Z,33.1
2019-05-25T12:51:17.702Z,33.0
2019-05-25T12:54:15.815Z,32.9
2019-05-25T12:57:16.057Z,32.8
2019-05-25T13:00:16.510Z,32.7
2019-05-25T13:03:15.285Z,32.5
2019-05-25T13:06:18.232Z,32.3
2019-05-25T13:09:16.212Z,32.1
2019-05-25T13:12:15.248Z,31.9
2019-05-25T13:15:15.240Z,31.8
2019-05-25T13:18:15.391Z,31.6
2019-05-25T13:21:15.615Z,31.5
2019-05-25T13:24:14.969Z,31.3
2019-05-25T13:27:15.693Z,31.1
2019-05-25T13:30:20.433Z,30.9
2019-05-25T13:33:15.016Z,30.9
2019-05-25T13:36:15.646Z,30.8
2019-05-25T13:39:15.614Z,30.8
2019-05-25T13:42:15.274Z,30.7
2019-05-25T13:45:14.914Z,30.7
2019-05-25T13:48:15.548Z,30.6
2019-05-25T13:51:15.087Z,30.5
2019-05-25T13:54:15.692Z,30.5
2019-05-25T13:57:16.658Z,30.4
2019-05-25T14:00:15.308Z,30.3
2019-05-25T14:03:15.868Z,30.2
2019-05-25T14:06:14.884Z,30.1
2019-05-25T14:09:16.061Z,30.0
2019-05-25T14:12:15.888Z,29.9
2019-05-25T14:15:15.664Z,29.8
2019-05-25T14:18:15.584Z,29.7
2019-05-25T14:21:15.310Z,29.7
2019-05-25T14:24:15.884Z,29.6
2019-05-25T14:30:16.124Z,29.4
2019-05-25T14:33:15.427Z,29.4
2019-05-25T14:36:15.832Z,29.3
2019-05-25T14:39:17.236Z,29.3
2019-05-25T14:42:16.974Z,29.2
2019-05-25T14:45:14.983Z,29.1
2019-05-25T14:48:15.691Z,29.1
2019-05-25T14:51:15.479Z,28.9
2019-05-25T14:54:15.106Z,28.8
2019-05-25T14:57:15.752Z,28.6
2019-05-25T15:00:15.509Z,28.5
2019-05-25T15:03:15.391Z,28.4
2019-05-25T15:06:15.094Z,28.3
2019-05-25T15:09:15.938Z,28.2
2019-05-25T15:12:15.125Z,28.1
2019-05-25T15:15:15.795Z,28.0
2019-05-25T15:18:15.712Z,27.9
2019-05-25T15:21:15.419Z,27.8
2019-05-25T15:24:15.443Z,27.8
2019-05-25T15:27:15.255Z,27.7
2019-05-25T15:30:15.821Z,27.7
2019-05-25T15:33:15.591Z,27.8
2019-05-25T15:36:15.306Z,27.9
2019-05-25T15:39:15.109Z,27.9
2019-05-25T15:42:15.115Z,27.9
2019-05-25T15:45:15.695Z,27.8
2019-05-25T15:48:15.643Z,27.7
2019-05-25T15:51:15.459Z,27.6
2019-05-25T15:54:15.250Z,27.5
2019-05-25T15:57:15.162Z,27.4
2019-05-25T16:00:15.748Z,27.3
2019-05-25T16:03:15.003Z,27.4
2019-05-25T16:06:15.602Z,27.5
2019-05-25T16:09:15.509Z,27.5
2019-05-25T16:12:15.335Z,27.4
2019-05-25T16:15:14.974Z,27.3
2019-05-25T16:18:15.571Z,27.3
2019-05-25T16:21:15.366Z,27.2
2019-05-25T16:24:15.159Z,27.2
2019-05-25T16:27:15.077Z,27.3
2019-05-25T16:30:15.853Z,27.3
2019-05-25T16:33:15.544Z,27.4
2019-05-25T16:36:15.349Z,27.3
2019-05-25T16:39:15.061Z,27.1
2019-05-25T16:42:15.893Z,26.9
2019-05-25T16:45:15.614Z,26.6
2019-05-25T16:48:15.511Z,26.1
2019-05-25T16:51:15.165Z,25.8
2019-05-25T16:54:14.923Z,25.7
2019-05-25T16:57:15.779Z,25.6
2019-05-25T17:00:15.483Z,25.5
2019-05-25T17:03:27.519Z,25.5
2019-05-25T17:06:15.883Z,25.4
2019-05-25T17:09:15.565Z,25.2
2019-05-25T17:12:15.128Z,25.0
2019-05-25T17:15:15.950Z,24.8
2019-05-25T17:18:15.056Z,24.7
2019-05-25T17:21:15.996Z,24.7
2019-05-25T17:24:15.823Z,24.6
2019-05-25T17:27:15.502Z,24.6
2019-05-25T17:30:15.153Z,24.5
2019-05-25T17:33:15.850Z,24.5
2019-05-25T17:36:15.642Z,24.4
2019-05-25T17:39:15.361Z,24.4
2019-05-25T17:42:15.263Z,24.3
2019-05-25T17:45:14.889Z,24.3
2019-05-25T17:48:15.579Z,24.3
2019-05-25T17:51:15.208Z,24.3
2019-05-25T17:54:15.830Z,24.3
2019-05-25T17:57:15.565Z,24.3
2019-05-25T18:00:15.561Z,24.3
2019-05-25T18:03:15.133Z,24.3
2019-05-25T18:06:15.710Z,24.3
2019-05-25T18:09:15.463Z,24.3
2019-05-25T18:12:15.193Z,24.3
2019-05-25T18:15:15.812Z,24.3
2019-05-25T18:18:15.702Z,24.3
2019-05-25T18:21:15.327Z,24.3
2019-05-25T18:24:15.559Z,24.3
2019-05-25T18:27:18.521Z,24.3
2019-05-25T18:30:15.020Z,24.2
2019-05-25T18:33:15.285Z,24.2
2019-05-25T18:36:15.043Z,24.2
2019-05-25T18:39:15.776Z,24.1
2019-05-25T18:42:15.372Z,24.0
2019-05-25T18:45:15.234Z,24.0
2019-05-25T18:48:15.045Z,24.0
2019-05-25T18:51:15.735Z,23.9
2019-05-25T18:54:15.406Z,23.9
2019-05-25T18:57:15.030Z,23.8
2019-05-25T19:00:15.641Z,23.8
2019-05-25T19:03:15.487Z,23.7
2019-05-25T19:06:15.040Z,23.6
2019-05-25T19:09:15.769Z,23.5
2019-05-25T19:12:15.898Z,23.5
2019-05-25T19:15:38.930Z,23.4
2019-05-25T19:18:25.157Z,23.4
2019-05-25T19:21:16.999Z,23.3
2019-05-25T19:24:17.830Z,23.3
2019-05-25T19:27:22.068Z,23.2
2019-05-25T19:30:15.283Z,23.2
2019-05-25T19:33:15.058Z,23.2
2019-05-25T19:36:15.547Z,23.2
2019-05-25T19:39:15.139Z,23.1
2019-05-25T19:42:15.955Z,23.1
2019-05-25T19:45:15.764Z,23.1
2019-05-25T19:48:15.405Z,23.1
2019-05-25T19:51:15.206Z,23.0
2019-05-25T20:03:15.598Z,22.8
2019-05-25T20:06:15.247Z,22.8
2019-05-25T20:09:23.190Z,22.8
2019-05-25T20:15:15.067Z,22.7
2019-05-25T20:18:15.888Z,22.7
2019-05-25T20:21:15.640Z,22.8
2019-05-25T20:24:15.382Z,22.7
2019-05-25T20:27:15.974Z,22.7
2019-05-25T20:30:15.653Z,22.6
2019-05-25T20:33:26.995Z,22.5
2019-05-25T20:36:15.670Z,22.4
2019-05-25T20:39:15.266Z,22.4
2019-05-25T20:42:15.260Z,22.4
2019-05-25T20:45:16.615Z,22.3
2019-05-25T20:48:15.306Z,22.3
2019-05-25T20:51:15.826Z,22.2
2019-05-25T20:54:15.558Z,22.1
2019-05-25T20:57:15.067Z,22.1
2019-05-25T21:00:15.748Z,22.2
2019-05-25T21:03:15.302Z,22.1
2019-05-25T21:06:15.018Z,22.1
2019-05-25T21:09:15.597Z,22.1
2019-05-25T21:12:15.081Z,22.1
2019-05-25T21:15:15.701Z,22.0
2019-05-25T21:18:21.122Z,22.0
2019-05-25T21:21:16.174Z,22.0
2019-05-25T21:24:16.622Z,22.0
2019-05-25T21:27:16.641Z,22.0
2019-05-25T21:30:16.974Z,21.9
2019-05-25T21:33:15.393Z,21.9
2019-05-25T21:36:16.454Z,21.9
2019-05-25T21:39:15.546Z,21.8
2019-05-25T21:42:15.267Z,21.8
2019-05-25T21:45:15.892Z,21.7
2019-05-25T21:48:15.474Z,21.7
2019-05-25T21:51:28.111Z,21.6
2019-05-25T21:54:26.354Z,21.5
2019-05-25T21:57:15.917Z,21.4
2019-05-25T22:00:15.437Z,21.3
2019-05-25T22:03:15.810Z,21.2
2019-05-25T22:06:24.166Z,21.2
2019-05-25T22:09:15.243Z,21.1
2019-05-25T22:12:15.294Z,21.0
2019-05-25T22:15:14.997Z,21.0
2019-05-25T22:18:15.721Z,20.9
2019-05-25T22:21:15.668Z,20.8
2019-05-25T22:24:15.163Z,20.8
2019-05-25T22:27:15.843Z,20.7
2019-05-25T22:30:15.395Z,20.7
2019-05-25T22:33:15.272Z,20.6
2019-05-25T22:36:15.562Z,20.6
2019-05-25T22:39:15.426Z,20.5
2019-05-25T22:42:15.810Z,20.5
2019-05-25T22:45:15.127Z,20.4
2019-05-25T22:48:15.565Z,20.4
2019-05-25T22:51:14.962Z,20.3
2019-05-25T22:54:15.362Z,20.3
2019-05-25T22:57:15.007Z,20.2
2019-05-25T23:00:20.664Z,20.1
2019-05-25T23:03:15.203Z,20.1
2019-05-25T23:06:15.176Z,20.0
2019-05-25T23:09:20.682Z,19.9
2019-05-25T23:12:15.685Z,19.8
2019-05-25T23:15:15.219Z,19.7
2019-05-25T23:18:15.747Z,19.6
2019-05-25T23:21:15.033Z,19.6
2019-05-25T23:24:15.793Z,19.5
2019-05-25T23:27:16.189Z,19.4
2019-05-25T23:30:15.296Z,19.4
2019-05-25T23:33:15.117Z,19.3
2019-05-25T23:36:15.859Z,19.3
2019-05-25T23:39:15.429Z,19.2
2019-05-25T23:42:15.787Z,19.2
2019-05-25T23:45:15.407Z,19.2
2019-05-25T23:48:15.568Z,19.1
2019-05-25T23:51:15.330Z,19.0
2019-05-25T23:54:14.945Z,18.9
2019-05-25T23:57:15.413Z,18.8
